Flugwetter

[source: ADDS]
METAR
LOWL 181550Z 09014KT 9999 FEW070 20/03 Q1025 NOSIG =
TAF LOWL 181115Z 1812/1912 10012KT CAVOK TX20/1912Z TN07/1904Z TEMPO 1812/1816 11018G28KT TEMPO 1820/1907 08005KT
TAF
TAF LOWL 181115Z 1812/1912 10012KT CAVOK TX20/1912Z TN07/1904Z TEMPO 1812/1816 11018G28KT TEMPO 1820/1907 08005KT =